ACO7578 SKSP-SKBO
Flight info
| Callsign | ACO7578 |
|---|---|
| Flight time | 1h 40m |
| Altitude | 35000 |
| Route | BODED2B BODED DCT VUNIB UP530 RNG UQ121 ISVAT ISVAT5E |
| Aircraft | A320/M-SDE3FGHIRWY/LB1 |
Departure
| Time | 2026-05-06 20:37 |
|---|---|
| Airport | Gustavo Rojas Pinilla International Airport (SKSP) |
Arrival
| Time | 2026-05-06 22:18 |
|---|---|
| Airport | El Dorado International Airport (SKBO) |
| Time | Latitude | Longitude | Altitude | Speed | Heading |
|---|---|---|---|---|---|
| 2026-05-06 20:12 | 12.58686 | -81.70226 | 30 ft | 0 kts | 148° |
| 2026-05-06 20:23 | 12.58687 | -81.70227 | 30 ft | 2 kts | 148° |
| 2026-05-06 20:23 | 12.58710 | -81.70241 | 30 ft | 4 kts | 156° |
| 2026-05-06 20:23 | 12.58736 | -81.70250 | 30 ft | 4 kts | 174° |
| 2026-05-06 20:23 | 12.58759 | -81.70246 | 29 ft | 3 kts | 231° |
| 2026-05-06 20:24 | 12.58762 | -81.70243 | 28 ft | 2 kts | 238° |
| 2026-05-06 20:28 | 12.58755 | -81.70254 | 29 ft | 5 kts | 237° |
| 2026-05-06 20:29 | 12.58729 | -81.70296 | 31 ft | 6 kts | 237° |
| 2026-05-06 20:29 | 12.58715 | -81.70319 | 32 ft | 1 kts | 237° |
| 2026-05-06 20:29 | 12.58707 | -81.70332 | 31 ft | 4 kts | 237° |
| 2026-05-06 20:29 | 12.58702 | -81.70370 | 34 ft | 8 kts | 291° |
| 2026-05-06 20:30 | 12.58732 | -81.70445 | 33 ft | 13 kts | 284° |
| 2026-05-06 20:30 | 12.58684 | -81.70563 | 38 ft | 6 kts | 240° |
| 2026-05-06 20:30 | 12.58659 | -81.70607 | 40 ft | 10 kts | 239° |
| 2026-05-06 20:31 | 12.58615 | -81.70681 | 43 ft | 15 kts | 238° |
| 2026-05-06 20:31 | 12.58551 | -81.70787 | 48 ft | 20 kts | 238° |
| 2026-05-06 20:31 | 12.58476 | -81.70920 | 52 ft | 21 kts | 240° |
| 2026-05-06 20:31 | 12.58404 | -81.71046 | 54 ft | 19 kts | 238° |
| 2026-05-06 20:32 | 12.58340 | -81.71158 | 54 ft | 17 kts | 239° |
| 2026-05-06 20:32 | 12.58286 | -81.71251 | 54 ft | 13 kts | 239° |
| 2026-05-06 20:32 | 12.58245 | -81.71320 | 55 ft | 10 kts | 239° |
| 2026-05-06 20:32 | 12.58216 | -81.71370 | 57 ft | 7 kts | 239° |
| 2026-05-06 20:33 | 12.58194 | -81.71408 | 64 ft | 7 kts | 241° |
| 2026-05-06 20:33 | 12.58163 | -81.71463 | 58 ft | 11 kts | 239° |
| 2026-05-06 20:33 | 12.58124 | -81.71531 | 67 ft | 9 kts | 239° |
| 2026-05-06 20:33 | 12.58097 | -81.71578 | 69 ft | 6 kts | 239° |
| 2026-05-06 20:34 | 12.58081 | -81.71604 | 69 ft | 4 kts | 239° |
| 2026-05-06 20:34 | 12.58060 | -81.71641 | 71 ft | 8 kts | 241° |
| 2026-05-06 20:34 | 12.58027 | -81.71702 | 68 ft | 12 kts | 240° |
| 2026-05-06 20:34 | 12.57978 | -81.71789 | 74 ft | 16 kts | 239° |
| 2026-05-06 20:35 | 12.57912 | -81.71899 | 73 ft | 16 kts | 239° |
| 2026-05-06 20:35 | 12.57846 | -81.71984 | 86 ft | 15 kts | 212° |
| 2026-05-06 20:35 | 12.57814 | -81.72016 | 85 ft | 5 kts | 244° |
| 2026-05-06 20:35 | 12.57832 | -81.72035 | 85 ft | 4 kts | 31° |
| 2026-05-06 20:36 | 12.57859 | -81.71990 | 81 ft | 10 kts | 59° |
| 2026-05-06 20:36 | 12.57862 | -81.71984 | 81 ft | 0 kts | 59° |
| 2026-05-06 20:36 | 12.57863 | -81.71982 | 81 ft | 6 kts | 59° |
| 2026-05-06 20:36 | 12.58033 | -81.71688 | 66 ft | 87 kts | 59° |
| 2026-05-06 20:37 | 12.58453 | -81.70960 | 52 ft | 148 kts | 59° |
| 2026-05-06 20:37 | 12.59043 | -81.69952 | 419 ft | 166 kts | 58° |
| 2026-05-06 20:37 | 12.59652 | -81.68953 | 1180 ft | 168 kts | 57° |
| 2026-05-06 20:37 | 12.60319 | -81.67922 | 1521 ft | 186 kts | 58° |
| 2026-05-06 20:38 | 12.60853 | -81.66723 | 1725 ft | 206 kts | 74° |
| 2026-05-06 20:38 | 12.61024 | -81.65197 | 2033 ft | 227 kts | 93° |
| 2026-05-06 20:38 | 12.60647 | -81.63583 | 2511 ft | 245 kts | 112° |
| 2026-05-06 20:38 | 12.59649 | -81.62120 | 3146 ft | 258 kts | 132° |
| 2026-05-06 20:39 | 12.58118 | -81.61093 | 3942 ft | 270 kts | 154° |
| 2026-05-06 20:39 | 12.56324 | -81.60457 | 4780 ft | 274 kts | 158° |
| 2026-05-06 20:39 | 12.54508 | -81.59831 | 5631 ft | 276 kts | 158° |
| 2026-05-06 20:39 | 12.52677 | -81.59196 | 6442 ft | 279 kts | 158° |
| 2026-05-06 20:40 | 12.50826 | -81.58549 | 7229 ft | 283 kts | 158° |
| 2026-05-06 20:40 | 12.48956 | -81.57896 | 7979 ft | 286 kts | 159° |
| 2026-05-06 20:40 | 12.47097 | -81.57227 | 8706 ft | 288 kts | 155° |
| 2026-05-06 20:40 | 12.45343 | -81.56224 | 9395 ft | 290 kts | 142° |
| 2026-05-06 20:41 | 12.43858 | -81.54829 | 10076 ft | 291 kts | 131° |
| 2026-05-06 20:41 | 12.42436 | -81.53257 | 10327 ft | 312 kts | 132° |
| 2026-05-06 20:41 | 12.40904 | -81.51572 | 10470 ft | 334 kts | 132° |
| 2026-05-06 20:41 | 12.39271 | -81.49786 | 10609 ft | 353 kts | 132° |
| 2026-05-06 20:42 | 12.37561 | -81.47925 | 10974 ft | 363 kts | 132° |
| 2026-05-06 20:42 | 12.35820 | -81.46029 | 11540 ft | 367 kts | 132° |
| 2026-05-06 20:42 | 12.34066 | -81.44117 | 12139 ft | 370 kts | 132° |
| 2026-05-06 20:42 | 12.32301 | -81.42194 | 12721 ft | 372 kts | 132° |
| 2026-05-06 20:43 | 12.30519 | -81.40257 | 13280 ft | 376 kts | 132° |
| 2026-05-06 20:43 | 12.28717 | -81.38301 | 13820 ft | 379 kts | 132° |
| 2026-05-06 20:43 | 12.26906 | -81.36331 | 14364 ft | 382 kts | 132° |
| 2026-05-06 20:43 | 12.25081 | -81.34343 | 14860 ft | 385 kts | 132° |
| 2026-05-06 20:44 | 12.23240 | -81.32337 | 15364 ft | 388 kts | 132° |
| 2026-05-06 20:44 | 12.21382 | -81.30313 | 15852 ft | 391 kts | 132° |
| 2026-05-06 20:44 | 12.19517 | -81.28281 | 16331 ft | 394 kts | 132° |
| 2026-05-06 20:44 | 12.17657 | -81.26256 | 16778 ft | 397 kts | 132° |
| 2026-05-06 20:45 | 12.15739 | -81.24166 | 17224 ft | 400 kts | 131° |
| 2026-05-06 20:45 | 12.13832 | -81.22090 | 17676 ft | 402 kts | 131° |
| 2026-05-06 20:45 | 12.11944 | -81.20037 | 18095 ft | 405 kts | 132° |
| 2026-05-06 20:45 | 12.09997 | -81.17924 | 18517 ft | 408 kts | 131° |
| 2026-05-06 20:46 | 12.08050 | -81.15811 | 18930 ft | 410 kts | 131° |
| 2026-05-06 20:46 | 12.06090 | -81.13687 | 19312 ft | 413 kts | 131° |
| 2026-05-06 20:46 | 12.04117 | -81.11545 | 19694 ft | 416 kts | 131° |
| 2026-05-06 20:46 | 12.02131 | -81.09384 | 20056 ft | 419 kts | 131° |
| 2026-05-06 20:47 | 12.00132 | -81.07210 | 20414 ft | 421 kts | 131° |
| 2026-05-06 20:47 | 11.98123 | -81.05026 | 20767 ft | 424 kts | 131° |
| 2026-05-06 20:47 | 11.96102 | -81.02829 | 21117 ft | 426 kts | 131° |
| 2026-05-06 20:47 | 11.94066 | -81.00616 | 21458 ft | 429 kts | 131° |
| 2026-05-06 20:48 | 11.92014 | -80.98387 | 21783 ft | 431 kts | 131° |
| 2026-05-06 20:48 | 11.89953 | -80.96151 | 22109 ft | 434 kts | 131° |
| 2026-05-06 20:48 | 11.87879 | -80.93905 | 22434 ft | 436 kts | 130° |
| 2026-05-06 20:48 | 11.85795 | -80.91648 | 22730 ft | 438 kts | 130° |
| 2026-05-06 20:49 | 11.83700 | -80.89378 | 23031 ft | 440 kts | 130° |
| 2026-05-06 20:49 | 11.81591 | -80.87092 | 23301 ft | 443 kts | 130° |
| 2026-05-06 20:49 | 11.79470 | -80.84792 | 23584 ft | 445 kts | 130° |
| 2026-05-06 20:49 | 11.77341 | -80.82488 | 23857 ft | 448 kts | 130° |
| 2026-05-06 20:50 | 11.75188 | -80.80174 | 24132 ft | 450 kts | 130° |
| 2026-05-06 20:50 | 11.73024 | -80.77858 | 24391 ft | 452 kts | 130° |
| 2026-05-06 20:50 | 11.70849 | -80.75538 | 24648 ft | 454 kts | 131° |
| 2026-05-06 20:50 | 11.68688 | -80.73233 | 24891 ft | 456 kts | 131° |
| 2026-05-06 20:51 | 11.66495 | -80.70891 | 25142 ft | 457 kts | 131° |
| 2026-05-06 20:51 | 11.64288 | -80.68533 | 25390 ft | 459 kts | 131° |
| 2026-05-06 20:51 | 11.62073 | -80.66167 | 25630 ft | 461 kts | 131° |
| 2026-05-06 20:51 | 11.59852 | -80.63801 | 25869 ft | 463 kts | 131° |
| 2026-05-06 20:52 | 11.57621 | -80.61424 | 26094 ft | 465 kts | 131° |
| 2026-05-06 20:52 | 11.55388 | -80.59040 | 26304 ft | 467 kts | 131° |
| 2026-05-06 20:52 | 11.53144 | -80.56642 | 26531 ft | 468 kts | 131° |
| 2026-05-06 20:52 | 11.50893 | -80.54231 | 26754 ft | 470 kts | 131° |
| 2026-05-06 20:53 | 11.48641 | -80.51816 | 26963 ft | 472 kts | 131° |
| 2026-05-06 20:53 | 11.46377 | -80.49398 | 27169 ft | 473 kts | 131° |
| 2026-05-06 20:53 | 11.44102 | -80.46973 | 27376 ft | 475 kts | 131° |
| 2026-05-06 20:53 | 11.41811 | -80.44536 | 27577 ft | 476 kts | 131° |
| 2026-05-06 20:54 | 11.39512 | -80.42092 | 27777 ft | 478 kts | 131° |
| 2026-05-06 20:54 | 11.37214 | -80.39646 | 27992 ft | 479 kts | 131° |
| 2026-05-06 20:54 | 11.34908 | -80.37193 | 28293 ft | 478 kts | 131° |
| 2026-05-06 20:54 | 11.32609 | -80.34746 | 28590 ft | 477 kts | 131° |
| 2026-05-06 20:55 | 11.30321 | -80.32303 | 28861 ft | 477 kts | 131° |
| 2026-05-06 20:55 | 11.28028 | -80.29851 | 29134 ft | 477 kts | 131° |
| 2026-05-06 20:55 | 11.25741 | -80.27408 | 29420 ft | 476 kts | 131° |
| 2026-05-06 20:55 | 11.23485 | -80.25002 | 29712 ft | 476 kts | 132° |
| 2026-05-06 20:56 | 11.21193 | -80.22567 | 30000 ft | 475 kts | 132° |
| 2026-05-06 20:56 | 11.18907 | -80.20143 | 30280 ft | 475 kts | 132° |
| 2026-05-06 20:56 | 11.16619 | -80.17717 | 30560 ft | 474 kts | 132° |
| 2026-05-06 20:56 | 11.14338 | -80.15295 | 30835 ft | 474 kts | 132° |
| 2026-05-06 20:57 | 11.12051 | -80.12867 | 31109 ft | 474 kts | 132° |
| 2026-05-06 20:57 | 11.09768 | -80.10443 | 31373 ft | 474 kts | 132° |
| 2026-05-06 20:57 | 11.07490 | -80.08023 | 31638 ft | 474 kts | 132° |
| 2026-05-06 20:57 | 11.05213 | -80.05600 | 31893 ft | 474 kts | 132° |
| 2026-05-06 20:58 | 11.02933 | -80.03171 | 32162 ft | 474 kts | 133° |
| 2026-05-06 20:58 | 11.00654 | -80.00749 | 32430 ft | 474 kts | 133° |
| 2026-05-06 20:58 | 10.98373 | -79.98329 | 32690 ft | 474 kts | 133° |
| 2026-05-06 20:58 | 10.96089 | -79.95907 | 32931 ft | 474 kts | 133° |
| 2026-05-06 20:59 | 10.93804 | -79.93487 | 33181 ft | 474 kts | 133° |
| 2026-05-06 20:59 | 10.91527 | -79.91073 | 33427 ft | 474 kts | 133° |
| 2026-05-06 20:59 | 10.89241 | -79.88644 | 33665 ft | 474 kts | 133° |
| 2026-05-06 20:59 | 10.86962 | -79.86227 | 33907 ft | 474 kts | 133° |
| 2026-05-06 21:00 | 10.84675 | -79.83806 | 34159 ft | 474 kts | 133° |
| 2026-05-06 21:00 | 10.82389 | -79.81386 | 34412 ft | 474 kts | 133° |
| 2026-05-06 21:00 | 10.80106 | -79.78966 | 34670 ft | 473 kts | 133° |
| 2026-05-06 21:00 | 10.77856 | -79.76581 | 34857 ft | 474 kts | 133° |
| 2026-05-06 21:01 | 10.75567 | -79.74159 | 34907 ft | 476 kts | 133° |
| 2026-05-06 21:01 | 10.70965 | -79.69295 | 34906 ft | 477 kts | 133° |
| 2026-05-06 21:02 | 10.66381 | -79.64453 | 34896 ft | 477 kts | 133° |
| 2026-05-06 21:02 | 10.61786 | -79.59585 | 34897 ft | 477 kts | 133° |
| 2026-05-06 21:03 | 10.57182 | -79.54710 | 34884 ft | 477 kts | 134° |
| 2026-05-06 21:03 | 10.52570 | -79.49840 | 34884 ft | 478 kts | 134° |
| 2026-05-06 21:04 | 10.47943 | -79.44994 | 34886 ft | 478 kts | 134° |
| 2026-05-06 21:04 | 10.43292 | -79.40178 | 34887 ft | 478 kts | 134° |
| 2026-05-06 21:05 | 10.38631 | -79.35347 | 34888 ft | 478 kts | 134° |
| 2026-05-06 21:05 | 10.33984 | -79.30524 | 34887 ft | 478 kts | 134° |
| 2026-05-06 21:06 | 10.29339 | -79.25703 | 34888 ft | 477 kts | 134° |
| 2026-05-06 21:06 | 10.24721 | -79.20910 | 34888 ft | 477 kts | 134° |
| 2026-05-06 21:07 | 10.20071 | -79.16087 | 34889 ft | 477 kts | 134° |
| 2026-05-06 21:07 | 10.16210 | -79.12079 | 34891 ft | 477 kts | 134° |
| 2026-05-06 21:08 | 10.11569 | -79.07270 | 34890 ft | 477 kts | 134° |
| 2026-05-06 21:08 | 10.06924 | -79.02461 | 34892 ft | 477 kts | 134° |
| 2026-05-06 21:09 | 10.02274 | -78.97641 | 34894 ft | 477 kts | 134° |
| 2026-05-06 21:09 | 9.97624 | -78.92824 | 34895 ft | 477 kts | 134° |
| 2026-05-06 21:10 | 9.92984 | -78.88020 | 34896 ft | 476 kts | 134° |
| 2026-05-06 21:10 | 9.88357 | -78.83233 | 34895 ft | 475 kts | 134° |
| 2026-05-06 21:11 | 9.83821 | -78.78546 | 34891 ft | 475 kts | 134° |
| 2026-05-06 21:11 | 9.79218 | -78.73804 | 34884 ft | 475 kts | 134° |
| 2026-05-06 21:12 | 9.74619 | -78.69053 | 34883 ft | 475 kts | 134° |
| 2026-05-06 21:12 | 9.69999 | -78.64264 | 34883 ft | 474 kts | 134° |
| 2026-05-06 21:13 | 9.65367 | -78.59482 | 34877 ft | 474 kts | 134° |
| 2026-05-06 21:13 | 9.60740 | -78.54712 | 34873 ft | 474 kts | 134° |
| 2026-05-06 21:14 | 9.56152 | -78.49978 | 34866 ft | 474 kts | 134° |
| 2026-05-06 21:14 | 9.51532 | -78.45213 | 34863 ft | 474 kts | 134° |
| 2026-05-06 21:15 | 9.46907 | -78.40454 | 34860 ft | 474 kts | 134° |
| 2026-05-06 21:15 | 9.42282 | -78.35697 | 34858 ft | 473 kts | 134° |
| 2026-05-06 21:16 | 9.37670 | -78.30936 | 34857 ft | 473 kts | 134° |
| 2026-05-06 21:16 | 9.33060 | -78.26188 | 34857 ft | 473 kts | 134° |
| 2026-05-06 21:17 | 9.28440 | -78.21439 | 34854 ft | 473 kts | 134° |
| 2026-05-06 21:17 | 9.23856 | -78.16654 | 34857 ft | 473 kts | 133° |
| 2026-05-06 21:18 | 9.19396 | -78.11774 | 34860 ft | 472 kts | 132° |
| 2026-05-06 21:18 | 9.14981 | -78.06889 | 34860 ft | 472 kts | 132° |
| 2026-05-06 21:19 | 9.10493 | -78.01980 | 34862 ft | 472 kts | 133° |
| 2026-05-06 21:19 | 9.06011 | -77.97127 | 34863 ft | 471 kts | 133° |
| 2026-05-06 21:20 | 9.01553 | -77.92292 | 34863 ft | 471 kts | 133° |
| 2026-05-06 21:20 | 8.97117 | -77.87472 | 34860 ft | 470 kts | 133° |
| 2026-05-06 21:21 | 8.92630 | -77.82602 | 34859 ft | 470 kts | 133° |
| 2026-05-06 21:21 | 8.88199 | -77.77798 | 34857 ft | 469 kts | 133° |
| 2026-05-06 21:22 | 8.83748 | -77.72970 | 34857 ft | 469 kts | 133° |
| 2026-05-06 21:22 | 8.79302 | -77.68147 | 34858 ft | 468 kts | 133° |
| 2026-05-06 21:23 | 8.74872 | -77.63352 | 34855 ft | 467 kts | 133° |
| 2026-05-06 21:23 | 8.70444 | -77.58558 | 34853 ft | 467 kts | 133° |
| 2026-05-06 21:24 | 8.66005 | -77.53750 | 34848 ft | 467 kts | 133° |
| 2026-05-06 21:24 | 8.61570 | -77.48952 | 34846 ft | 467 kts | 133° |
| 2026-05-06 21:25 | 8.57181 | -77.44200 | 34848 ft | 467 kts | 133° |
| 2026-05-06 21:25 | 8.52700 | -77.39443 | 34848 ft | 467 kts | 135° |
| 2026-05-06 21:26 | 8.47993 | -77.34929 | 34850 ft | 466 kts | 137° |
| 2026-05-06 21:26 | 8.43208 | -77.30519 | 34851 ft | 466 kts | 137° |
| 2026-05-06 21:27 | 8.38460 | -77.26070 | 34851 ft | 465 kts | 137° |
| 2026-05-06 21:27 | 8.33757 | -77.21577 | 34847 ft | 465 kts | 136° |
| 2026-05-06 21:28 | 8.29064 | -77.17069 | 34847 ft | 465 kts | 136° |
| 2026-05-06 21:28 | 8.24381 | -77.12608 | 34846 ft | 465 kts | 137° |
| 2026-05-06 21:29 | 8.19663 | -77.08127 | 34846 ft | 465 kts | 137° |
| 2026-05-06 21:29 | 8.14956 | -77.03646 | 34847 ft | 465 kts | 137° |
| 2026-05-06 21:30 | 8.10245 | -76.99168 | 34847 ft | 465 kts | 137° |
| 2026-05-06 21:30 | 8.05526 | -76.94683 | 34846 ft | 465 kts | 137° |
| 2026-05-06 21:31 | 8.00814 | -76.90204 | 34850 ft | 465 kts | 137° |
| 2026-05-06 21:31 | 7.96104 | -76.85723 | 34856 ft | 465 kts | 137° |
| 2026-05-06 21:32 | 7.91432 | -76.81280 | 34865 ft | 464 kts | 137° |
| 2026-05-06 21:32 | 7.84385 | -76.74592 | 34862 ft | 463 kts | 137° |
| 2026-05-06 21:33 | 7.79428 | -76.70458 | 34860 ft | 462 kts | 145° |
| 2026-05-06 21:33 | 7.74169 | -76.66721 | 34861 ft | 462 kts | 145° |
| 2026-05-06 21:34 | 7.68907 | -76.62983 | 34859 ft | 462 kts | 145° |
| 2026-05-06 21:34 | 7.63650 | -76.59236 | 34860 ft | 462 kts | 145° |
| 2026-05-06 21:35 | 7.58397 | -76.55496 | 34858 ft | 462 kts | 145° |
| 2026-05-06 21:35 | 7.53145 | -76.51764 | 34858 ft | 462 kts | 145° |
| 2026-05-06 21:36 | 7.47923 | -76.48047 | 34858 ft | 462 kts | 145° |
| 2026-05-06 21:36 | 7.42667 | -76.44304 | 34860 ft | 462 kts | 145° |
| 2026-05-06 21:37 | 7.37417 | -76.40571 | 34864 ft | 462 kts | 145° |
| 2026-05-06 21:37 | 7.32168 | -76.36843 | 34871 ft | 462 kts | 145° |
| 2026-05-06 21:38 | 7.26922 | -76.33113 | 34875 ft | 463 kts | 145° |
| 2026-05-06 21:38 | 7.21664 | -76.29374 | 34884 ft | 463 kts | 145° |
| 2026-05-06 21:39 | 7.16402 | -76.25635 | 34891 ft | 463 kts | 145° |
| 2026-05-06 21:39 | 7.11141 | -76.21894 | 34899 ft | 463 kts | 145° |
| 2026-05-06 21:40 | 7.05874 | -76.18148 | 34905 ft | 463 kts | 145° |
| 2026-05-06 21:40 | 7.00601 | -76.14412 | 34915 ft | 463 kts | 145° |
| 2026-05-06 21:41 | 6.95327 | -76.10680 | 34924 ft | 463 kts | 145° |
| 2026-05-06 21:41 | 6.90051 | -76.06940 | 34935 ft | 463 kts | 145° |
| 2026-05-06 21:42 | 6.84776 | -76.03200 | 34953 ft | 464 kts | 144° |
| 2026-05-06 21:42 | 6.79505 | -75.99458 | 34961 ft | 463 kts | 144° |
| 2026-05-06 21:43 | 6.74270 | -75.95742 | 34971 ft | 463 kts | 144° |
| 2026-05-06 21:43 | 6.69002 | -75.92006 | 34986 ft | 463 kts | 144° |
| 2026-05-06 21:44 | 6.63723 | -75.88276 | 35005 ft | 463 kts | 144° |
| 2026-05-06 21:44 | 6.58453 | -75.84546 | 35014 ft | 463 kts | 144° |
| 2026-05-06 21:45 | 6.53169 | -75.80798 | 35025 ft | 464 kts | 144° |
| 2026-05-06 21:45 | 6.47897 | -75.77062 | 35042 ft | 464 kts | 144° |
| 2026-05-06 21:46 | 6.42621 | -75.73330 | 35051 ft | 464 kts | 144° |
| 2026-05-06 21:46 | 6.37349 | -75.69596 | 35062 ft | 463 kts | 144° |
| 2026-05-06 21:47 | 6.32071 | -75.65870 | 35069 ft | 463 kts | 144° |
| 2026-05-06 21:47 | 6.29425 | -75.64005 | 34741 ft | 466 kts | 144° |
| 2026-05-06 21:47 | 6.26774 | -75.62129 | 34038 ft | 466 kts | 144° |
| 2026-05-06 21:48 | 6.24162 | -75.60278 | 33347 ft | 465 kts | 144° |
| 2026-05-06 21:48 | 6.21508 | -75.58397 | 32643 ft | 466 kts | 144° |
| 2026-05-06 21:48 | 6.18859 | -75.56523 | 31945 ft | 467 kts | 144° |
| 2026-05-06 21:48 | 6.16202 | -75.54646 | 31244 ft | 467 kts | 144° |
| 2026-05-06 21:49 | 6.13536 | -75.52768 | 30544 ft | 469 kts | 144° |
| 2026-05-06 21:49 | 6.10862 | -75.50884 | 29846 ft | 470 kts | 144° |
| 2026-05-06 21:49 | 6.09057 | -75.49610 | 29380 ft | 471 kts | 144° |
| 2026-05-06 21:49 | 6.06370 | -75.47709 | 28678 ft | 473 kts | 144° |
| 2026-05-06 21:50 | 6.02796 | -75.45177 | 27748 ft | 476 kts | 144° |
| 2026-05-06 21:50 | 6.01001 | -75.43908 | 27283 ft | 478 kts | 144° |
| 2026-05-06 21:50 | 5.98318 | -75.41933 | 26576 ft | 480 kts | 140° |
| 2026-05-06 21:50 | 5.95867 | -75.39591 | 25864 ft | 478 kts | 134° |
| 2026-05-06 21:51 | 5.93580 | -75.37246 | 25168 ft | 474 kts | 134° |
| 2026-05-06 21:51 | 5.91284 | -75.34890 | 24462 ft | 470 kts | 134° |
| 2026-05-06 21:51 | 5.89003 | -75.32545 | 23766 ft | 467 kts | 134° |
| 2026-05-06 21:51 | 5.86745 | -75.30222 | 23068 ft | 462 kts | 134° |
| 2026-05-06 21:52 | 5.84507 | -75.27922 | 22365 ft | 457 kts | 133° |
| 2026-05-06 21:52 | 5.82294 | -75.25652 | 21667 ft | 453 kts | 133° |
| 2026-05-06 21:52 | 5.80099 | -75.23403 | 20981 ft | 448 kts | 133° |
| 2026-05-06 21:52 | 5.77920 | -75.21173 | 20279 ft | 444 kts | 133° |
| 2026-05-06 21:53 | 5.75766 | -75.18962 | 19575 ft | 441 kts | 133° |
| 2026-05-06 21:53 | 5.73629 | -75.16768 | 18872 ft | 437 kts | 133° |
| 2026-05-06 21:53 | 5.71479 | -75.14625 | 18324 ft | 431 kts | 136° |
| 2026-05-06 21:53 | 5.69118 | -75.12798 | 18130 ft | 428 kts | 144° |
| 2026-05-06 21:54 | 5.66524 | -75.11334 | 18101 ft | 428 kts | 153° |
| 2026-05-06 21:54 | 5.63773 | -75.10173 | 18101 ft | 430 kts | 155° |
| 2026-05-06 21:54 | 5.61006 | -75.09032 | 18084 ft | 430 kts | 155° |
| 2026-05-06 21:54 | 5.58238 | -75.07889 | 18064 ft | 430 kts | 155° |
| 2026-05-06 21:55 | 5.55477 | -75.06748 | 18047 ft | 430 kts | 155° |
| 2026-05-06 21:55 | 5.52744 | -75.05617 | 18036 ft | 430 kts | 155° |
| 2026-05-06 21:55 | 5.49997 | -75.04480 | 18014 ft | 419 kts | 155° |
| 2026-05-06 21:55 | 5.47357 | -75.03388 | 17999 ft | 401 kts | 155° |
| 2026-05-06 21:56 | 5.44832 | -75.02348 | 17987 ft | 384 kts | 155° |
| 2026-05-06 21:56 | 5.42410 | -75.01354 | 17973 ft | 369 kts | 155° |
| 2026-05-06 21:56 | 5.40063 | -75.00391 | 17970 ft | 363 kts | 155° |
| 2026-05-06 21:56 | 5.37727 | -74.99430 | 17949 ft | 361 kts | 155° |
| 2026-05-06 21:57 | 5.35406 | -74.98458 | 17941 ft | 361 kts | 154° |
| 2026-05-06 21:57 | 5.33091 | -74.97473 | 17726 ft | 360 kts | 154° |
| 2026-05-06 21:57 | 5.30787 | -74.96490 | 17475 ft | 358 kts | 154° |
| 2026-05-06 21:57 | 5.28524 | -74.95525 | 17228 ft | 357 kts | 154° |
| 2026-05-06 21:58 | 5.26238 | -74.94554 | 16976 ft | 356 kts | 155° |
| 2026-05-06 21:58 | 5.23936 | -74.93577 | 16723 ft | 354 kts | 154° |
| 2026-05-06 21:58 | 5.21838 | -74.92383 | 16549 ft | 349 kts | 141° |
| 2026-05-06 21:58 | 5.20045 | -74.90768 | 16520 ft | 346 kts | 129° |
| 2026-05-06 21:59 | 5.18625 | -74.88829 | 16517 ft | 343 kts | 118° |
| 2026-05-06 21:59 | 5.17461 | -74.86793 | 16519 ft | 330 kts | 118° |
| 2026-05-06 21:59 | 5.16338 | -74.84822 | 16531 ft | 322 kts | 118° |
| 2026-05-06 21:59 | 5.15232 | -74.82884 | 16530 ft | 319 kts | 118° |
| 2026-05-06 22:00 | 5.14113 | -74.80953 | 16533 ft | 320 kts | 118° |
| 2026-05-06 22:00 | 5.13204 | -74.78938 | 16535 ft | 316 kts | 102° |
| 2026-05-06 22:00 | 5.13027 | -74.76759 | 16539 ft | 314 kts | 83° |
| 2026-05-06 22:00 | 5.13626 | -74.74666 | 16550 ft | 313 kts | 63° |
| 2026-05-06 22:01 | 5.14919 | -74.72912 | 16549 ft | 317 kts | 45° |
| 2026-05-06 22:01 | 5.16530 | -74.71388 | 16558 ft | 318 kts | 44° |
| 2026-05-06 22:01 | 5.18138 | -74.69874 | 16558 ft | 317 kts | 44° |
| 2026-05-06 22:01 | 5.19754 | -74.68354 | 16565 ft | 317 kts | 44° |
| 2026-05-06 22:02 | 5.21363 | -74.66839 | 16569 ft | 318 kts | 44° |
| 2026-05-06 22:02 | 5.22972 | -74.65319 | 16572 ft | 317 kts | 45° |
| 2026-05-06 22:02 | 5.24476 | -74.63712 | 16571 ft | 315 kts | 54° |
| 2026-05-06 22:02 | 5.25575 | -74.61820 | 16583 ft | 314 kts | 68° |
| 2026-05-06 22:03 | 5.26353 | -74.59765 | 16594 ft | 316 kts | 70° |
| 2026-05-06 22:03 | 5.27123 | -74.57695 | 16604 ft | 316 kts | 70° |
| 2026-05-06 22:03 | 5.27890 | -74.55648 | 16618 ft | 317 kts | 70° |
| 2026-05-06 22:03 | 5.28665 | -74.53580 | 16628 ft | 316 kts | 70° |
| 2026-05-06 22:04 | 5.29435 | -74.51526 | 16638 ft | 314 kts | 69° |
| 2026-05-06 22:04 | 5.30213 | -74.49453 | 16660 ft | 314 kts | 70° |
| 2026-05-06 22:04 | 5.30819 | -74.47353 | 16677 ft | 314 kts | 81° |
| 2026-05-06 22:04 | 5.30928 | -74.45169 | 16686 ft | 314 kts | 93° |
| 2026-05-06 22:05 | 5.30750 | -74.42986 | 16696 ft | 314 kts | 94° |
| 2026-05-06 22:05 | 5.30576 | -74.40796 | 16709 ft | 315 kts | 94° |
| 2026-05-06 22:05 | 5.30406 | -74.38636 | 16728 ft | 315 kts | 94° |
| 2026-05-06 22:05 | 5.30218 | -74.36452 | 16735 ft | 315 kts | 97° |
| 2026-05-06 22:06 | 5.29528 | -74.34377 | 16740 ft | 316 kts | 119° |
| 2026-05-06 22:06 | 5.28070 | -74.32718 | 16767 ft | 322 kts | 141° |
| 2026-05-06 22:06 | 5.26054 | -74.31736 | 16574 ft | 325 kts | 165° |
| 2026-05-06 22:06 | 5.23790 | -74.31672 | 16305 ft | 331 kts | 189° |
| 2026-05-06 22:07 | 5.21567 | -74.32306 | 16054 ft | 332 kts | 195° |
| 2026-05-06 22:07 | 5.19365 | -74.32995 | 15787 ft | 330 kts | 195° |
| 2026-05-06 22:07 | 5.17175 | -74.33676 | 15499 ft | 329 kts | 195° |
| 2026-05-06 22:07 | 5.14982 | -74.34348 | 15249 ft | 328 kts | 195° |
| 2026-05-06 22:08 | 5.12806 | -74.35012 | 14993 ft | 326 kts | 195° |
| 2026-05-06 22:08 | 5.10635 | -74.35673 | 14745 ft | 325 kts | 195° |
| 2026-05-06 22:08 | 5.08478 | -74.36331 | 14490 ft | 323 kts | 195° |
| 2026-05-06 22:08 | 5.06326 | -74.36985 | 14245 ft | 322 kts | 195° |
| 2026-05-06 22:09 | 5.04189 | -74.37634 | 14008 ft | 321 kts | 195° |
| 2026-05-06 22:09 | 5.02058 | -74.38283 | 13753 ft | 317 kts | 195° |
| 2026-05-06 22:09 | 4.99963 | -74.38922 | 13526 ft | 312 kts | 195° |
| 2026-05-06 22:09 | 4.97903 | -74.39552 | 13287 ft | 308 kts | 195° |
| 2026-05-06 22:10 | 4.95898 | -74.40167 | 13076 ft | 300 kts | 195° |
| 2026-05-06 22:10 | 4.93945 | -74.40661 | 12957 ft | 278 kts | 183° |
| 2026-05-06 22:10 | 4.92081 | -74.40548 | 12850 ft | 256 kts | 163° |
| 2026-05-06 22:10 | 4.90511 | -74.39907 | 12834 ft | 243 kts | 146° |
| 2026-05-06 22:11 | 4.89249 | -74.38860 | 12863 ft | 225 kts | 129° |
| 2026-05-06 22:11 | 4.88325 | -74.37674 | 12847 ft | 206 kts | 125° |
| 2026-05-06 22:11 | 4.87515 | -74.36600 | 12852 ft | 184 kts | 125° |
| 2026-05-06 22:11 | 4.86773 | -74.35616 | 12863 ft | 171 kts | 125° |
| 2026-05-06 22:12 | 4.86060 | -74.34671 | 12868 ft | 169 kts | 124° |
| 2026-05-06 22:12 | 4.85351 | -74.33733 | 12774 ft | 168 kts | 125° |
| 2026-05-06 22:12 | 4.84643 | -74.32798 | 12608 ft | 168 kts | 125° |
| 2026-05-06 22:12 | 4.83938 | -74.31866 | 12403 ft | 167 kts | 125° |
| 2026-05-06 22:13 | 4.83238 | -74.30941 | 12187 ft | 167 kts | 126° |
| 2026-05-06 22:13 | 4.82538 | -74.30015 | 11955 ft | 166 kts | 126° |
| 2026-05-06 22:13 | 4.81841 | -74.29092 | 11748 ft | 166 kts | 126° |
| 2026-05-06 22:13 | 4.81147 | -74.28176 | 11531 ft | 165 kts | 126° |
| 2026-05-06 22:14 | 4.80458 | -74.27263 | 11306 ft | 164 kts | 125° |
| 2026-05-06 22:14 | 4.79779 | -74.26366 | 11087 ft | 163 kts | 126° |
| 2026-05-06 22:14 | 4.79097 | -74.25463 | 10873 ft | 162 kts | 126° |
| 2026-05-06 22:14 | 4.78416 | -74.24562 | 10658 ft | 162 kts | 125° |
| 2026-05-06 22:15 | 4.77735 | -74.23662 | 10443 ft | 162 kts | 126° |
| 2026-05-06 22:15 | 4.77058 | -74.22767 | 10229 ft | 161 kts | 126° |
| 2026-05-06 22:15 | 4.76381 | -74.21873 | 10019 ft | 161 kts | 126° |
| 2026-05-06 22:15 | 4.75707 | -74.20982 | 9804 ft | 160 kts | 126° |
| 2026-05-06 22:16 | 4.75034 | -74.20093 | 9592 ft | 160 kts | 126° |
| 2026-05-06 22:16 | 4.74362 | -74.19203 | 9385 ft | 160 kts | 126° |
| 2026-05-06 22:16 | 4.73688 | -74.18313 | 9163 ft | 160 kts | 126° |
| 2026-05-06 22:16 | 4.73019 | -74.17428 | 8960 ft | 160 kts | 127° |
| 2026-05-06 22:17 | 4.72344 | -74.16536 | 8733 ft | 161 kts | 126° |
| 2026-05-06 22:17 | 4.71671 | -74.15647 | 8520 ft | 160 kts | 126° |
| 2026-05-06 22:17 | 4.71004 | -74.14765 | 8370 ft | 152 kts | 127° |
| 2026-05-06 22:17 | 4.70457 | -74.14045 | 8368 ft | 106 kts | 127° |
| 2026-05-06 22:18 | 4.70087 | -74.13557 | 8369 ft | 72 kts | 127° |
| 2026-05-06 22:18 | 4.69934 | -74.13357 | 8370 ft | 11 kts | 127° |
| 2026-05-06 22:18 | 4.69896 | -74.13331 | 8370 ft | 6 kts | 165° |
| 2026-05-06 22:18 | 4.69854 | -74.13325 | 8370 ft | 6 kts | 171° |
| 2026-05-06 22:19 | 4.69821 | -74.13320 | 8370 ft | 4 kts | 172° |
| 2026-05-06 22:19 | 4.69802 | -74.13317 | 8369 ft | 2 kts | 172° |
| 2026-05-06 22:19 | 4.69798 | -74.13317 | 8369 ft | 0 kts | 172° |
| 2026-05-06 22:20 | 4.69796 | -74.13316 | 8369 ft | 2 kts | 172° |
| 2026-05-06 22:20 | 4.69781 | -74.13314 | 8369 ft | 1 kts | 172° |
| 2026-05-06 22:20 | 4.69776 | -74.13314 | 8369 ft | 2 kts | 172° |
| 2026-05-06 22:21 | 4.69742 | -74.13309 | 8369 ft | 8 kts | 172° |
| 2026-05-06 22:21 | 4.69679 | -74.13300 | 8370 ft | 10 kts | 172° |
| 2026-05-06 22:21 | 4.69604 | -74.13290 | 8370 ft | 11 kts | 172° |
| 2026-05-06 22:21 | 4.69525 | -74.13300 | 8369 ft | 13 kts | 209° |
| 2026-05-06 22:22 | 4.69463 | -74.13347 | 8370 ft | 3 kts | 218° |
| 2026-05-06 22:22 | 4.69444 | -74.13362 | 8370 ft | 4 kts | 218° |
| 2026-05-06 22:22 | 4.69426 | -74.13358 | 8369 ft | 3 kts | 149° |
| 2026-05-06 22:22 | 4.69413 | -74.13342 | 8369 ft | 4 kts | 128° |
| 2026-05-06 22:23 | 4.69404 | -74.13330 | 8369 ft | 0 kts | 127° |